Time;durP1;ratioP1;P1;durP2;ratioP2;P2;SDS_P1;SDS_P2;PMS_P1;PMS_P2;Temp;Humidity;BMP_temperature;BMP_pressure;BME280_temperature;BME280_humidity;BME280_pressure;Samples;Min_cycle;Max_cycle;Signal;HPM_P1;HPM_P2
2022/09/20 00:00:07;;;;;;;1.50;1.45;;;10.10;99.90;;;;;;5042048;28;20650;-76
2022/09/20 00:02:32;;;;;;;1.17;1.17;;;10.10;99.90;;;;;;5038432;28;20187;-75
2022/09/20 00:04:58;;;;;;;1.60;1.40;;;10.20;99.90;;;;;;5040970;28;20207;-75
2022/09/20 00:07:23;;;;;;;1.42;1.33;;;10.30;99.90;;;;;;5039926;28;20183;-75
2022/09/20 00:09:49;;;;;;;1.75;1.65;;;10.30;99.90;;;;;;5032961;28;20191;-74
2022/09/20 00:12:15;;;;;;;1.73;1.58;;;10.30;99.90;;;;;;5035618;28;20180;-75
2022/09/20 00:14:40;;;;;;;2.10;1.13;;;10.40;99.90;;;;;;5041978;28;20183;-75
2022/09/20 00:17:06;;;;;;;1.73;1.33;;;10.40;99.90;;;;;;5037839;28;20263;-75
2022/09/20 00:19:32;;;;;;;3.20;1.08;;;10.50;99.90;;;;;;5047189;28;20176;-74
2022/09/20 00:21:57;;;;;;;1.13;1.10;;;10.40;99.90;;;;;;5039133;28;20666;-75
2022/09/20 00:24:23;;;;;;;1.25;1.13;;;10.40;99.90;;;;;;5047072;28;20207;-75
2022/09/20 00:26:49;;;;;;;1.48;1.40;;;10.40;99.90;;;;;;5044755;28;20176;-75
2022/09/20 00:29:14;;;;;;;1.58;1.20;;;10.40;99.90;;;;;;5046297;28;20192;-75
2022/09/20 00:31:41;;;;;;;1.63;1.10;;;10.40;99.90;;;;;;5041003;28;20709;-75
2022/09/20 00:36:52;;;;;;;1.45;1.10;;;10.40;99.90;;;;;;5039785;28;20218;-75
2022/09/20 00:39:18;;;;;;;1.50;1.40;;;10.50;99.90;;;;;;5032589;28;20207;-75
2022/09/20 00:41:44;;;;;;;2.40;1.98;;;10.40;99.90;;;;;;5045265;28;20682;-75
2022/09/20 00:44:42;;;;;;;1.30;1.00;;;10.40;99.90;;;;;;5042844;28;20216;-75
2022/09/20 00:47:41;;;;;;;1.30;1.20;;;10.50;99.90;;;;;;5037811;28;20170;-75
2022/09/20 00:50:37;;;;;;;4.28;1.13;;;10.50;99.90;;;;;;5055966;28;20198;-75
2022/09/20 00:53:13;;;;;;;2.10;1.45;;;10.50;99.90;;;;;;5035973;28;20168;-75
2022/09/20 00:55:55;;;;;;;1.67;1.20;;;10.50;99.90;;;;;;5038439;28;20179;-75
2022/09/20 00:58:26;;;;;;;1.05;1.05;;;10.40;99.90;;;;;;5041192;28;20642;-74
2022/09/20 01:00:54;;;;;;;2.00;1.75;;;10.30;99.90;;;;;;5043538;28;20612;-74
2022/09/20 01:03:21;;;;;;;1.33;1.33;;;10.20;99.90;;;;;;5045048;28;20171;-74
2022/09/20 01:05:49;;;;;;;1.15;1.05;;;10.30;99.90;;;;;;5043683;28;20211;-74
2022/09/20 01:08:15;;;;;;;1.27;1.17;;;10.20;99.90;;;;;;5036636;28;20581;-74
2022/09/20 01:10:41;;;;;;;1.77;1.23;;;10.30;99.90;;;;;;5031930;28;20200;-75
2022/09/20 01:13:07;;;;;;;1.23;1.13;;;10.40;99.90;;;;;;5035257;28;20180;-75
2022/09/20 01:15:33;;;;;;;2.13;1.40;;;10.40;99.90;;;;;;5041215;28;20179;-75
2022/09/20 01:18:01;;;;;;;1.48;1.30;;;10.30;99.90;;;;;;5029793;28;20212;-75
2022/09/20 01:20:39;;;;;;;3.47;1.45;;;10.30;99.90;;;;;;5032121;28;20210;-75
2022/09/20 01:23:39;;;;;;;1.75;1.65;;;10.20;99.90;;;;;;5034966;28;20183;-75
2022/09/20 01:26:16;;;;;;;1.40;1.10;;;10.30;99.90;;;;;;5039420;28;20820;-75
2022/09/20 01:28:46;;;;;;;2.67;1.45;;;10.30;99.90;;;;;;5044908;28;20180;-75
2022/09/20 01:31:27;;;;;;;2.92;1.50;;;10.20;99.90;;;;;;5048148;28;20188;-75
2022/09/20 01:34:02;;;;;;;2.90;1.63;;;10.30;99.90;;;;;;5043088;28;20184;-75
2022/09/20 01:36:40;;;;;;;5.65;1.70;;;10.20;99.90;;;;;;5038482;28;20259;-75
2022/09/20 01:39:32;;;;;;;1.30;1.15;;;10.30;99.90;;;;;;5034865;28;20173;-75
2022/09/20 01:42:09;;;;;;;1.35;1.25;;;10.20;99.90;;;;;;5044476;28;20196;-75
2022/09/20 01:45:00;;;;;;;4.25;1.77;;;10.20;99.90;;;;;;5031115;28;20200;-75
2022/09/20 01:47:46;;;;;;;2.13;1.15;;;10.30;99.90;;;;;;5046137;28;20211;-75
2022/09/20 01:50:27;;;;;;;1.85;1.30;;;10.30;99.90;;;;;;5042801;28;20232;-75
2022/09/20 01:53:17;;;;;;;1.67;1.58;;;10.30;99.90;;;;;;5043040;28;20176;-75
2022/09/20 01:56:28;;;;;;;1.77;1.58;;;10.30;99.90;;;;;;5047265;28;20188;-75
2022/09/20 01:59:12;;;;;;;3.50;1.50;;;10.20;99.90;;;;;;5065505;28;20223;-75
2022/09/20 02:01:53;;;;;;;1.10;1.10;;;10.10;99.90;;;;;;5043856;28;20210;-75
2022/09/20 02:04:40;;;;;;;1.40;1.30;;;9.90;99.90;;;;;;5042908;28;20200;-76
2022/09/20 02:07:40;;;;;;;3.45;1.08;;;9.90;99.90;;;;;;5037095;28;20648;-74
2022/09/20 02:10:27;;;;;;;1.75;1.55;;;9.90;99.90;;;;;;5038306;28;20181;-74
2022/09/20 02:13:22;;;;;;;1.40;1.20;;;9.90;99.90;;;;;;5048274;28;20621;-74
2022/09/20 02:16:25;;;;;;;1.40;1.02;;;9.90;99.90;;;;;;5058781;28;20571;-72
2022/09/20 02:19:06;;;;;;;2.05;1.52;;;9.90;99.90;;;;;;5034635;28;20191;-74
2022/09/20 02:21:45;;;;;;;4.93;1.30;;;9.90;99.90;;;;;;5041728;28;20199;-73
2022/09/20 02:24:19;;;;;;;1.25;1.20;;;9.90;99.90;;;;;;5039399;28;20655;-73
2022/09/20 02:26:51;;;;;;;1.50;1.40;;;9.90;99.90;;;;;;5039904;28;20305;-73
2022/09/20 02:29:43;;;;;;;2.05;1.35;;;9.70;99.90;;;;;;5041836;28;20168;-75
2022/09/20 02:32:26;;;;;;;4.32;1.77;;;9.70;99.90;;;;;;5035503;28;20193;-74
2022/09/20 02:35:10;;;;;;;2.00;1.35;;;9.70;99.90;;;;;;5043329;28;20180;-75
2022/09/20 02:38:07;;;;;;;1.20;1.20;;;9.70;99.90;;;;;;5026473;28;20187;-75
2022/09/20 02:41:11;;;;;;;2.90;1.30;;;9.70;99.90;;;;;;5044382;28;20232;-75
2022/09/20 02:44:04;;;;;;;2.95;1.42;;;9.80;99.90;;;;;;5039008;28;20196;-75
2022/09/20 02:46:44;;;;;;;5.18;1.67;;;9.70;99.90;;;;;;5039942;28;20919;-75
2022/09/20 02:49:44;;;;;;;1.75;1.27;;;9.70;99.90;;;;;;5035695;28;20661;-75
2022/09/20 02:52:49;;;;;;;1.58;1.45;;;9.50;99.90;;;;;;5036300;28;20273;-75
2022/09/20 02:55:39;;;;;;;2.50;1.33;;;9.60;99.90;;;;;;5037902;28;20540;-75
2022/09/20 02:58:23;;;;;;;2.88;1.90;;;9.50;99.90;;;;;;5034278;28;20169;-75
2022/09/20 03:01:13;;;;;;;2.55;1.65;;;9.50;99.90;;;;;;5027864;28;20546;-75
2022/09/20 03:04:02;;;;;;;3.17;1.50;;;9.60;99.90;;;;;;5039143;28;20233;-75
2022/09/20 03:06:47;;;;;;;1.75;1.65;;;9.60;99.90;;;;;;5052148;28;20734;-75
2022/09/20 03:09:50;;;;;;;2.35;1.60;;;9.50;99.90;;;;;;5036042;28;20217;-75
2022/09/20 03:12:45;;;;;;;2.70;1.92;;;9.40;99.90;;;;;;5032529;28;20188;-77
2022/09/20 03:15:26;;;;;;;2.33;1.67;;;9.40;99.90;;;;;;5034979;28;20173;-75
2022/09/20 03:18:13;;;;;;;2.28;1.67;;;9.50;99.90;;;;;;5040568;28;20219;-75
2022/09/20 03:21:05;;;;;;;2.00;1.90;;;9.50;99.90;;;;;;5030806;28;20208;-75
2022/09/20 03:23:55;;;;;;;2.75;1.83;;;9.40;99.90;;;;;;5032185;28;20728;-75
2022/09/20 03:26:42;;;;;;;5.00;2.10;;;9.40;99.90;;;;;;5038521;28;20187;-74
2022/09/20 03:29:25;;;;;;;2.70;2.00;;;9.40;99.90;;;;;;5038713;28;20179;-75
2022/09/20 03:32:39;;;;;;;1.65;1.55;;;9.30;99.90;;;;;;5060309;28;20207;-75
2022/09/20 03:35:42;;;;;;;1.75;1.65;;;9.20;99.90;;;;;;5020363;28;20223;-74
2022/09/20 03:38:23;;;;;;;1.88;1.60;;;9.20;99.90;;;;;;5030521;28;20192;-75
2022/09/20 03:41:00;;;;;;;3.75;1.70;;;9.20;99.90;;;;;;5042678;28;20196;-76
2022/09/20 03:43:45;;;;;;;1.80;1.70;;;9.10;99.90;;;;;;5044066;28;20249;-75
2022/09/20 03:46:27;;;;;;;1.85;1.30;;;9.20;99.90;;;;;;5036436;28;20346;-76
2022/09/20 03:49:02;;;;;;;1.98;1.60;;;9.20;99.90;;;;;;5045764;28;20180;-75
2022/09/20 03:51:49;;;;;;;1.73;1.63;;;9.30;99.90;;;;;;5035070;28;20192;-76
2022/09/20 03:55:03;;;;;;;2.45;1.70;;;9.30;99.90;;;;;;5034146;28;20259;-76
2022/09/20 03:57:38;;;;;;;1.70;1.60;;;9.40;99.90;;;;;;5031444;28;20230;-75
2022/09/20 04:00:29;;;;;;;2.25;1.90;;;9.40;99.90;;;;;;5020368;28;20294;-75
2022/09/20 04:03:09;;;;;;;2.20;1.67;;;9.50;99.90;;;;;;5034348;28;20176;-75
2022/09/20 04:05:59;;;;;;;1.92;1.77;;;9.50;99.90;;;;;;5038211;28;20204;-74
2022/09/20 04:09:08;;;;;;;2.92;1.83;;;9.50;99.90;;;;;;5035360;28;20254;-75
2022/09/20 04:11:49;;;;;;;2.10;1.80;;;9.40;99.90;;;;;;5037678;28;20224;-74
2022/09/20 04:14:38;;;;;;;2.42;2.10;;;9.40;99.90;;;;;;5041023;28;20172;-74
2022/09/20 04:17:21;;;;;;;2.05;1.90;;;9.30;99.90;;;;;;5018848;28;20192;-74
2022/09/20 04:20:22;;;;;;;5.20;2.40;;;9.30;99.90;;;;;;5025646;28;20238;-76
2022/09/20 04:22:51;;;;;;;3.22;2.08;;;9.50;99.90;;;;;;5015191;28;20254;-75
2022/09/20 04:25:21;;;;;;;3.38;2.63;;;9.50;99.90;;;;;;5022335;28;20197;-75
2022/09/20 04:27:58;;;;;;;3.38;2.83;;;9.40;99.90;;;;;;5019610;28;20264;-74
2022/09/20 04:30:29;;;;;;;4.38;2.60;;;9.40;99.90;;;;;;5027953;28;20200;-74
2022/09/20 04:33:40;;;;;;;2.97;2.58;;;9.10;99.90;;;;;;5026271;28;20194;-75
2022/09/20 04:36:31;;;;;;;3.15;2.28;;;8.90;99.90;;;;;;5019364;28;20216;-74
2022/09/20 04:39:10;;;;;;;4.40;2.53;;;9.20;99.90;;;;;;5025908;28;20168;-74
2022/09/20 04:41:54;;;;;;;5.40;3.00;;;9.30;99.90;;;;;;5025319;28;20203;-74
2022/09/20 04:44:45;;;;;;;2.85;2.72;;;9.40;99.90;;;;;;5020366;28;20220;-75
2022/09/20 04:47:35;;;;;;;6.30;2.95;;;9.40;99.90;;;;;;5018421;28;20289;-74
2022/09/20 04:50:13;;;;;;;3.15;2.85;;;9.30;99.90;;;;;;5026225;28;20643;-75
2022/09/20 04:53:06;;;;;;;3.10;2.90;;;9.30;99.90;;;;;;5017632;28;20212;-74
2022/09/20 04:55:43;;;;;;;5.47;3.00;;;9.30;99.90;;;;;;5019344;28;20185;-74
2022/09/20 04:58:42;;;;;;;3.08;2.83;;;9.00;99.90;;;;;;5019432;28;20186;-74
2022/09/20 05:01:15;;;;;;;3.58;3.28;;;9.10;99.90;;;;;;5021335;28;20226;-75
2022/09/20 05:03:59;;;;;;;3.78;3.15;;;9.10;99.90;;;;;;5023397;28;20176;-75
2022/09/20 05:07:03;;;;;;;4.93;3.30;;;9.20;99.90;;;;;;5028265;28;20199;-74
2022/09/20 05:10:06;;;;;;;3.35;3.05;;;9.30;99.90;;;;;;5033120;28;20176;-74
2022/09/20 05:13:22;;;;;;;3.25;2.95;;;9.40;99.90;;;;;;5026469;28;20204;-74
2022/09/20 05:15:57;;;;;;;4.88;3.15;;;9.40;99.90;;;;;;4988402;28;20212;-74
2022/09/20 05:18:50;;;;;;;5.38;3.53;;;9.40;99.90;;;;;;5028677;28;20168;-74
2022/09/20 05:21:18;;;;;;;3.80;3.03;;;9.40;99.90;;;;;;5037018;28;20199;-75
2022/09/20 05:24:26;;;;;;;5.18;2.80;;;9.50;99.90;;;;;;5035751;28;20181;-75
2022/09/20 05:27:02;;;;;;;3.45;3.25;;;9.50;99.90;;;;;;5059510;28;20199;-75
2022/09/20 05:29:34;;;;;;;4.05;3.67;;;9.50;99.90;;;;;;5034117;28;20189;-74
2022/09/20 05:32:38;;;;;;;4.40;3.90;;;9.50;99.90;;;;;;5043187;28;20215;-73
2022/09/20 05:35:28;;;;;;;6.25;3.83;;;9.60;99.90;;;;;;5032394;28;20223;-75
2022/09/20 05:38:09;;;;;;;4.82;3.58;;;9.60;99.90;;;;;;5045257;28;20188;-75
2022/09/20 05:40:58;;;;;;;5.00;3.35;;;9.80;99.90;;;;;;5034537;28;20299;-75
2022/09/20 05:43:31;;;;;;;4.47;3.97;;;9.80;99.90;;;;;;5034721;28;20271;-75
2022/09/20 05:46:21;;;;;;;3.45;3.05;;;9.80;99.90;;;;;;5047731;28;20215;-76
2022/09/20 05:49:23;;;;;;;5.72;3.63;;;9.90;99.90;;;;;;5035590;28;20336;-75
2022/09/20 05:52:08;;;;;;;7.45;3.80;;;9.90;99.90;;;;;;5022284;28;20698;-77
2022/09/20 05:54:53;;;;;;;4.13;3.83;;;9.90;99.90;;;;;;5021809;28;20693;-74
2022/09/20 05:58:00;;;;;;;5.85;4.68;;;9.90;99.90;;;;;;5026101;28;20248;-73
2022/09/20 06:00:32;;;;;;;5.47;4.20;;;10.00;99.90;;;;;;5029865;28;20220;-74
2022/09/20 06:03:33;;;;;;;4.22;3.83;;;10.10;99.90;;;;;;5024116;28;20651;-72
2022/09/20 06:06:37;;;;;;;5.45;4.95;;;10.10;99.90;;;;;;5041167;28;20207;-72
2022/09/20 06:09:05;;;;;;;5.57;4.90;;;10.10;99.90;;;;;;5026707;28;20244;-73
2022/09/20 06:12:02;;;;;;;4.88;4.40;;;10.10;99.90;;;;;;5029366;28;20205;-72
2022/09/20 06:14:46;;;;;;;5.78;4.50;;;10.20;99.90;;;;;;5043363;28;20185;-73
2022/09/20 06:17:24;;;;;;;7.22;4.85;;;10.20;99.90;;;;;;5029227;28;20236;-74
2022/09/20 06:20:19;;;;;;;5.45;4.95;;;10.30;99.90;;;;;;5026031;28;20191;-72
2022/09/20 06:22:49;;;;;;;6.22;5.07;;;10.40;99.90;;;;;;5017615;28;20208;-72
2022/09/20 06:25:39;;;;;;;4.85;4.18;;;10.50;99.90;;;;;;5032574;28;20693;-73
2022/09/20 06:28:17;;;;;;;6.55;4.10;;;10.60;99.90;;;;;;5033286;28;20653;-73
2022/09/20 06:30:49;;;;;;;5.50;3.40;;;10.90;99.90;;;;;;5044763;28;20200;-72
2022/09/20 06:33:21;;;;;;;4.50;3.60;;;10.90;99.90;;;;;;5038753;28;20240;-73
2022/09/20 06:35:58;;;;;;;5.95;3.83;;;10.90;99.90;;;;;;5039786;28;20657;-72
2022/09/20 06:41:29;;;;;;;5.05;3.55;;;10.90;99.90;;;;;;5036095;28;20198;-72
2022/09/20 06:43:59;;;;;;;3.80;3.50;;;11.00;99.90;;;;;;5040475;28;20192;-74
2022/09/20 06:46:30;;;;;;;8.73;3.67;;;11.00;99.90;;;;;;5040219;28;20215;-73
2022/09/20 06:48:56;;;;;;;5.50;3.70;;;10.90;99.90;;;;;;5038985;28;20263;-72
2022/09/20 06:51:24;;;;;;;6.00;3.88;;;10.80;99.90;;;;;;5035127;28;20224;-72
2022/09/20 06:53:50;;;;;;;5.30;4.40;;;10.70;99.90;;;;;;5036746;28;20211;-72
2022/09/20 06:56:19;;;;;;;5.85;4.15;;;10.50;99.90;;;;;;5030330;28;20260;-72
2022/09/20 06:58:45;;;;;;;5.28;3.78;;;10.40;99.90;;;;;;5035086;28;20173;-72
2022/09/20 07:01:12;;;;;;;6.43;3.42;;;10.30;99.90;;;;;;5036113;28;20263;-72
2022/09/20 07:03:41;;;;;;;8.95;3.40;;;10.30;99.90;;;;;;5029505;28;20181;-74
2022/09/20 07:06:08;;;;;;;5.20;3.13;;;10.30;99.90;;;;;;5034940;28;20716;-72
2022/09/20 07:08:34;;;;;;;6.20;3.22;;;10.20;99.90;;;;;;5037132;28;20234;-73
2022/09/20 07:11:09;;;;;;;2.97;2.78;;;10.30;99.90;;;;;;5041633;28;20200;-72
2022/09/20 07:13:35;;;;;;;5.45;3.22;;;10.30;99.90;;;;;;5039755;28;20183;-75
2022/09/20 07:16:07;;;;;;;2.60;2.40;;;10.40;99.90;;;;;;5034353;28;20206;-72
2022/09/20 07:18:34;;;;;;;6.45;3.30;;;10.60;99.90;;;;;;5028416;28;20874;-74
2022/09/20 07:21:00;;;;;;;3.00;2.75;;;10.70;99.90;;;;;;5031152;28;20271;-74
2022/09/20 07:23:28;;;;;;;3.92;2.65;;;11.00;99.90;;;;;;5036878;28;20176;-78
2022/09/20 07:25:58;;;;;;;5.28;2.60;;;11.20;99.90;;;;;;5037675;28;20211;-76
2022/09/20 07:28:23;;;;;;;2.53;2.33;;;11.40;99.90;;;;;;5027711;28;20303;-75
2022/09/20 07:30:50;;;;;;;4.63;2.03;;;11.70;99.90;;;;;;5034027;28;20247;-75
2022/09/20 07:33:20;;;;;;;3.97;2.30;;;12.10;99.90;;;;;;5035710;28;20179;-74
2022/09/20 07:35:46;;;;;;;2.75;2.05;;;12.30;99.90;;;;;;5042570;28;20263;-74
2022/09/20 07:38:23;;;;;;;5.22;2.25;;;12.40;99.90;;;;;;5034728;28;20183;-75
2022/09/20 07:40:59;;;;;;;4.35;2.17;;;12.40;99.90;;;;;;5037819;28;20224;-73
2022/09/20 07:43:26;;;;;;;2.50;1.73;;;12.40;99.90;;;;;;5030426;28;20192;-74
2022/09/20 07:45:53;;;;;;;2.70;2.05;;;12.30;99.90;;;;;;5029024;28;20217;-73
2022/09/20 07:48:25;;;;;;;4.22;1.60;;;12.20;99.90;;;;;;5029661;28;20259;-74
2022/09/20 07:50:57;;;;;;;3.70;1.70;;;12.30;99.90;;;;;;5018514;28;20259;-74
2022/09/20 07:53:23;;;;;;;3.35;2.00;;;12.20;99.90;;;;;;5018881;28;20300;-74
2022/09/20 07:56:12;;;;;;;4.03;1.95;;;12.30;99.90;;;;;;5031923;28;20180;-75
2022/09/20 07:58:38;;;;;;;2.53;2.25;;;12.90;99.90;;;;;;5017173;28;20726;-74
2022/09/20 08:01:11;;;;;;;5.57;2.50;;;13.20;99.90;;;;;;5039805;28;20251;-74
2022/09/20 08:03:37;;;;;;;3.47;2.00;;;13.40;99.90;;;;;;5031276;28;20185;-75
2022/09/20 08:06:13;;;;;;;4.43;1.85;;;13.20;99.90;;;;;;5035788;28;20210;-74
2022/09/20 08:08:39;;;;;;;2.40;1.80;;;13.00;99.90;;;;;;5031030;28;20206;-73
2022/09/20 08:11:13;;;;;;;4.80;2.15;;;13.00;99.90;;;;;;5032617;28;20208;-74
2022/09/20 08:13:48;;;;;;;2.25;1.70;;;13.00;99.90;;;;;;5032322;28;20183;-74
2022/09/20 08:16:15;;;;;;;1.90;1.38;;;13.30;99.90;;;;;;5031855;28;20202;-76
2022/09/20 08:18:50;;;;;;;3.70;1.90;;;13.60;99.90;;;;;;5022277;28;20230;-75
2022/09/20 08:21:16;;;;;;;1.58;1.48;;;14.00;99.90;;;;;;5022896;28;20258;-76
2022/09/20 08:23:45;;;;;;;3.60;1.70;;;14.20;99.90;;;;;;5022765;28;20212;-75
2022/09/20 08:26:13;;;;;;;3.95;1.75;;;14.40;99.90;;;;;;5030944;28;20621;-77
2022/09/20 08:28:41;;;;;;;5.07;2.17;;;14.60;99.90;;;;;;5027435;28;20523;-76
2022/09/20 08:31:12;;;;;;;3.58;1.92;;;14.80;99.90;;;;;;5024781;28;20212;-76
2022/09/20 08:33:38;;;;;;;3.08;2.15;;;14.70;99.90;;;;;;5020917;28;20181;-76
2022/09/20 08:36:05;;;;;;;3.35;2.03;;;14.50;99.90;;;;;;5031316;28;20462;-77
2022/09/20 08:38:32;;;;;;;4.18;2.13;;;14.50;99.90;;;;;;5021721;28;20181;-77
2022/09/20 08:41:12;;;;;;;2.65;2.13;;;14.50;99.90;;;;;;5029186;28;20230;-76
2022/09/20 08:44:05;;;;;;;2.65;2.00;;;14.60;99.90;;;;;;5027819;28;20204;-77
2022/09/20 08:46:34;;;;;;;7.97;2.58;;;14.70;99.90;;;;;;5024363;28;20228;-77
2022/09/20 08:49:03;;;;;;;2.70;2.05;;;14.60;99.90;;;;;;5025088;28;20184;-77
2022/09/20 08:51:32;;;;;;;5.82;2.10;;;16.30;99.90;;;;;;5024530;28;20229;-73
2022/09/20 08:53:59;;;;;;;6.15;2.35;;;18.20;99.90;;;;;;5017758;28;20185;-74
2022/09/20 08:56:45;;;;;;;2.00;1.73;;;20.00;99.90;;;;;;5025276;28;20667;-77
2022/09/20 08:59:18;;;;;;;4.95;1.88;;;21.30;98.80;;;;;;5023354;28;20633;-75
2022/09/20 09:01:49;;;;;;;3.70;1.85;;;20.90;93.80;;;;;;5023640;28;20217;-73
2022/09/20 09:04:17;;;;;;;3.65;2.05;;;20.80;95.10;;;;;;5023642;28;20177;-73
2022/09/20 09:06:44;;;;;;;4.72;1.95;;;21.10;93.70;;;;;;5027957;28;20182;-76
2022/09/20 09:09:26;;;;;;;4.57;2.03;;;21.50;90.60;;;;;;5030495;28;20174;-74
2022/09/20 09:11:54;;;;;;;2.50;1.50;;;22.70;85.90;;;;;;5016720;28;20201;-73
2022/09/20 09:17:15;;;;;;;2.45;1.38;;;24.00;73.30;;;;;;5025861;28;20191;-74
2022/09/20 09:19:52;;;;;;;2.03;1.35;;;24.60;72.70;;;;;;5032142;28;20181;-79
2022/09/20 09:22:21;;;;;;;2.05;1.10;;;26.20;70.20;;;;;;5026936;28;20579;-74
2022/09/20 09:25:26;;;;;;;3.00;2.03;;;26.70;64.40;;;;;;5039228;28;20258;-75
2022/09/20 09:27:53;;;;;;;4.13;1.60;;;25.80;66.90;;;;;;5035989;28;20172;-75
2022/09/20 09:30:35;;;;;;;2.67;1.40;;;23.40;68.30;;;;;;5033123;28;20266;-74
2022/09/20 09:33:26;;;;;;;1.95;1.20;;;21.20;76.60;;;;;;5027402;28;20181;-77
2022/09/20 09:35:59;;;;;;;2.50;1.30;;;20.10;78.20;;;;;;5037597;28;20180;-77
2022/09/20 09:38:31;;;;;;;1.30;1.10;;;21.30;76.70;;;;;;5020862;28;20185;-76
2022/09/20 09:41:02;;;;;;;2.35;1.10;;;23.30;72.30;;;;;;5030677;28;20201;-76
2022/09/20 09:43:34;;;;;;;1.42;1.20;;;24.90;68.00;;;;;;5022915;28;20184;-76
2022/09/20 09:46:20;;;;;;;1.58;1.33;;;25.90;66.80;;;;;;5029766;28;20207;-76
2022/09/20 09:49:03;;;;;;;1.85;1.42;;;26.40;62.20;;;;;;5018846;28;20223;-76
2022/09/20 09:51:31;;;;;;;2.13;1.35;;;27.00;62.20;;;;;;5015839;28;20579;-78
2022/09/20 09:53:56;;;;;;;3.45;1.30;;;28.00;59.30;;;;;;5027720;28;20173;-77
2022/09/20 09:57:00;;;;;;;4.43;1.40;;;28.70;55.00;;;;;;5033258;28;20662;-79
2022/09/20 09:59:48;;;;;;;2.92;1.25;;;29.90;53.50;;;;;;5034267;28;20554;-79
2022/09/20 10:02:44;;;;;;;1.92;1.23;;;30.60;52.00;;;;;;5029462;28;20237;-77
2022/09/20 10:05:34;;;;;;;2.03;0.82;;;30.40;51.20;;;;;;5036280;28;20261;-78
2022/09/20 10:08:34;;;;;;;1.15;1.00;;;30.80;51.30;;;;;;5032730;28;20681;-78
2022/09/20 10:11:30;;;;;;;0.82;0.82;;;30.80;49.90;;;;;;5027378;28;20666;-77
2022/09/20 10:14:21;;;;;;;2.03;0.77;;;30.00;48.40;;;;;;5047598;28;20180;-78
2022/09/20 10:17:14;;;;;;;0.70;0.52;;;27.70;51.10;;;;;;5025041;28;20180;-78
2022/09/20 10:19:54;;;;;;;2.10;1.23;;;25.80;55.20;;;;;;5024040;28;20267;-78
2022/09/20 10:23:07;;;;;;;1.67;1.00;;;24.30;58.40;;;;;;5025072;28;20184;-77
2022/09/20 10:26:12;;;;;;;2.15;1.00;;;23.10;61.50;;;;;;5034562;28;20200;-78
2022/09/20 10:28:50;;;;;;;1.35;1.23;;;23.30;62.60;;;;;;5037468;28;20197;-78
2022/09/20 10:31:56;;;;;;;2.70;1.48;;;24.70;58.90;;;;;;5050755;28;20554;-79
2022/09/20 10:34:34;;;;;;;3.00;1.50;;;25.50;58.40;;;;;;5043207;28;20693;-77
2022/09/20 10:37:00;;;;;;;1.63;1.10;;;25.20;57.50;;;;;;5032804;28;20181;-79
2022/09/20 10:39:39;;;;;;;2.67;1.23;;;24.00;58.50;;;;;;5037550;28;20182;-78
2022/09/20 10:45:36;;;;;;;2.47;1.50;;;20.00;75.90;;;;;;5046103;28;20269;-77
2022/09/20 10:48:25;;;;;;;1.13;1.10;;;18.00;96.70;;;;;;5040329;28;20179;-79
2022/09/20 10:51:18;;;;;;;2.03;1.45;;;16.60;98.90;;;;;;5048123;28;20299;-77
2022/09/20 10:54:05;;;;;;;1.88;1.20;;;16.40;99.90;;;;;;5048594;28;20173;-78
2022/09/20 10:56:46;;;;;;;2.30;1.25;;;18.80;99.20;;;;;;5041081;28;20235;-76
2022/09/20 10:59:47;;;;;;;2.08;1.40;;;21.60;88.50;;;;;;5026742;28;20609;-76
2022/09/20 11:02:19;;;;;;;3.22;1.70;;;23.60;74.90;;;;;;5023657;28;20619;-76
2022/09/20 11:05:02;;;;;;;2.40;1.20;;;24.90;70.80;;;;;;5035860;28;20663;-74
2022/09/20 11:07:48;;;;;;;3.25;1.27;;;26.90;62.00;;;;;;5040203;28;20252;-74
2022/09/20 11:10:24;;;;;;;1.38;1.20;;;28.40;57.60;;;;;;5032482;28;20196;-74
2022/09/20 11:13:01;;;;;;;3.05;1.33;;;29.00;55.70;;;;;;5037668;28;20215;-74
2022/09/20 11:15:45;;;;;;;1.17;0.95;;;27.90;56.70;;;;;;5037049;28;20775;-73
2022/09/20 11:18:27;;;;;;;1.10;0.95;;;27.60;55.80;;;;;;5036855;28;20191;-74
2022/09/20 11:21:18;;;;;;;1.75;1.10;;;28.30;53.10;;;;;;5028089;28;20718;-74
2022/09/20 11:23:44;;;;;;;1.60;1.10;;;28.00;53.30;;;;;;5039175;28;20206;-74
2022/09/20 11:26:32;;;;;;;3.92;1.80;;;27.40;53.60;;;;;;5028130;28;20692;-74
2022/09/20 11:29:12;;;;;;;2.38;1.13;;;26.10;54.90;;;;;;5023933;28;20219;-73
2022/09/20 11:31:47;;;;;;;1.50;1.33;;;26.20;56.80;;;;;;5033517;28;20262;-74
2022/09/20 11:34:28;;;;;;;2.25;1.23;;;27.80;54.30;;;;;;5019237;28;20238;-74
2022/09/20 11:37:02;;;;;;;2.17;0.77;;;29.00;51.00;;;;;;5025366;28;20266;-73
2022/09/20 11:39:47;;;;;;;1.77;0.85;;;29.80;49.30;;;;;;5020228;28;20188;-73
2022/09/20 11:42:19;;;;;;;3.25;1.35;;;30.60;48.60;;;;;;5019848;28;20680;-72
2022/09/20 11:44:45;;;;;;;2.47;1.17;;;31.70;47.80;;;;;;5018144;28;20204;-71
2022/09/20 11:47:33;;;;;;;1.83;1.20;;;30.30;47.10;;;;;;5022766;28;20582;-71
2022/09/20 11:50:03;;;;;;;1.95;1.50;;;26.50;51.60;;;;;;5018963;28;20267;-73
2022/09/20 11:52:54;;;;;;;1.80;1.05;;;24.00;56.00;;;;;;5019631;28;20174;-73
2022/09/20 11:55:51;;;;;;;0.40;0.40;;;21.50;58.80;;;;;;5018641;28;20203;-73
2022/09/20 11:58:19;;;;;;;0.63;0.60;;;19.80;63.50;;;;;;5020999;28;20691;-74
2022/09/20 12:00:51;;;;;;;0.47;0.40;;;18.70;71.50;;;;;;5019721;28;20284;-73
2022/09/20 12:03:35;;;;;;;0.57;0.57;;;18.00;77.90;;;;;;5020084;28;20608;-74
2022/09/20 12:06:06;;;;;;;0.20;0.20;;;18.00;80.20;;;;;;5012546;28;20201;-73
2022/09/20 12:08:36;;;;;;;0.95;0.50;;;18.30;76.20;;;;;;5019251;28;20229;-74
2022/09/20 12:11:13;;;;;;;0.88;0.88;;;18.60;77.90;;;;;;5021254;28;20188;-74
2022/09/20 12:13:42;;;;;;;0.98;0.65;;;18.30;76.70;;;;;;5022011;28;20191;-74
2022/09/20 12:16:14;;;;;;;2.00;0.90;;;17.80;81.60;;;;;;5026739;28;20219;-74
2022/09/20 12:19:08;;;;;;;3.17;0.93;;;17.50;80.40;;;;;;5023142;28;20185;-74
2022/09/20 12:22:02;;;;;;;4.35;1.08;;;18.30;77.80;;;;;;5025354;28;20223;-74
2022/09/20 12:24:31;;;;;;;0.95;0.77;;;20.60;72.10;;;;;;5024504;28;20200;-74
2022/09/20 12:26:59;;;;;;;1.75;0.90;;;22.70;67.10;;;;;;5027152;28;20184;-73
2022/09/20 12:29:25;;;;;;;1.63;1.00;;;24.10;63.10;;;;;;5020943;28;20259;-73
2022/09/20 12:31:59;;;;;;;1.25;0.88;;;25.40;61.70;;;;;;5029390;28;20191;-74
2022/09/20 12:34:24;;;;;;;1.48;0.98;;;26.60;59.50;;;;;;5027674;28;20181;-72
2022/09/20 12:36:53;;;;;;;1.77;1.08;;;27.30;56.50;;;;;;5027304;28;20192;-71
2022/09/20 12:39:27;;;;;;;1.00;1.00;;;27.70;56.00;;;;;;5027111;28;20173;-71
2022/09/20 12:42:02;;;;;;;2.78;1.17;;;27.20;54.90;;;;;;5027309;28;20208;-71
2022/09/20 12:44:38;;;;;;;0.82;0.82;;;25.70;57.20;;;;;;5019512;28;20262;-71
2022/09/20 12:47:08;;;;;;;2.13;0.90;;;24.80;57.90;;;;;;5024868;28;20177;-71
2022/09/20 12:52:57;;;;;;;0.80;0.80;;;25.70;57.10;;;;;;5025393;28;20195;-71
2022/09/20 12:55:26;;;;;;;2.03;0.95;;;26.70;55.20;;;;;;5026350;28;20196;-71
2022/09/20 12:58:05;;;;;;;2.35;1.00;;;27.70;53.10;;;;;;5039748;28;20549;-71
2022/09/20 13:00:39;;;;;;;1.55;1.05;;;27.90;52.10;;;;;;5029986;28;20207;-72
2022/09/20 13:03:14;;;;;;;1.70;0.93;;;28.50;52.20;;;;;;5024346;28;20271;-71
2022/09/20 13:05:45;;;;;;;1.33;1.00;;;29.60;51.50;;;;;;5032065;28;20210;-73
2022/09/20 13:08:26;;;;;;;1.52;0.88;;;30.40;50.20;;;;;;5047986;28;20659;-73
2022/09/20 13:10:52;;;;;;;0.50;0.50;;;28.90;50.40;;;;;;5036250;28;20199;-72
2022/09/20 13:13:32;;;;;;;3.47;1.02;;;27.00;58.10;;;;;;5046987;28;20256;-72
2022/09/20 13:16:00;;;;;;;2.15;1.08;;;25.00;65.20;;;;;;5038798;28;20266;-73
2022/09/20 13:18:27;;;;;;;0.95;0.95;;;22.50;84.80;;;;;;5030346;28;20193;-72
2022/09/20 13:20:55;;;;;;;2.45;1.00;;;21.00;78.80;;;;;;5019406;28;20201;-72
2022/09/20 13:23:27;;;;;;;1.75;1.10;;;19.70;83.20;;;;;;5031205;28;20188;-75
2022/09/20 13:25:56;;;;;;;1.70;1.15;;;19.10;90.40;;;;;;5023086;28;20197;-74
2022/09/20 13:28:36;;;;;;;0.70;0.70;;;18.70;92.00;;;;;;5027798;28;20688;-75
2022/09/20 13:31:21;;;;;;;1.75;0.82;;;18.20;92.80;;;;;;5025017;28;20243;-76
2022/09/20 13:33:47;;;;;;;1.48;1.10;;;18.00;94.70;;;;;;5026915;28;20184;-76
2022/09/20 13:36:14;;;;;;;1.58;1.05;;;17.90;97.00;;;;;;5020712;28;20267;-75
2022/09/20 13:38:40;;;;;;;1.20;0.77;;;17.40;96.40;;;;;;5028139;28;20185;-75
2022/09/20 13:41:09;;;;;;;1.73;1.05;;;16.40;99.10;;;;;;5020853;28;20256;-75
2022/09/20 13:43:36;;;;;;;1.75;1.10;;;15.50;99.90;;;;;;5025747;28;20197;-75
2022/09/20 13:46:08;;;;;;;1.00;0.88;;;14.60;99.90;;;;;;5032868;28;20205;-74
2022/09/20 13:48:33;;;;;;;1.25;1.15;;;14.10;99.90;;;;;;5034169;28;20239;-76
2022/09/20 13:50:59;;;;;;;0.88;0.88;;;14.00;99.90;;;;;;5029640;28;20200;-75
2022/09/20 13:53:27;;;;;;;1.23;1.20;;;14.10;99.90;;;;;;5024047;28;20715;-76
2022/09/20 13:55:54;;;;;;;2.30;0.93;;;14.40;99.90;;;;;;5024094;28;20185;-76
2022/09/20 13:58:24;;;;;;;0.90;0.90;;;14.60;99.90;;;;;;5021897;28;20663;-77
2022/09/20 14:00:57;;;;;;;3.53;0.77;;;14.70;99.90;;;;;;5022288;28;20204;-77
2022/09/20 14:03:25;;;;;;;1.88;1.23;;;14.80;99.90;;;;;;5030286;28;20177;-76
2022/09/20 14:05:58;;;;;;;0.98;0.70;;;14.80;99.90;;;;;;5026025;28;20209;-76